Time;durP1;ratioP1;P1;durP2;ratioP2;P2;SDS_P1;SDS_P2;PMS_P1;PMS_P2;Temp;Humidity;BMP_temperature;BMP_pressure;BME280_temperature;BME280_humidity;BME280_pressure;Samples;Min_cycle;Max_cycle;Signal;HPM_P1;HPM_P2
2022/04/13 05:03:48;;;;;;;9.80;4.50;;;9.70;99.00;;;;;;6227930;22;20031;-82
2022/04/13 05:06:22;;;;;;;9.63;4.50;;;9.80;98.90;;;;;;6255764;23;20060;-82
2022/04/13 05:08:50;;;;;;;7.85;4.78;;;9.80;98.90;;;;;;6255034;23;20013;-83
2022/04/13 05:11:16;;;;;;;8.68;4.45;;;9.90;98.90;;;;;;6199133;23;19999;-81
2022/04/13 05:13:45;;;;;;;7.72;4.25;;;10.00;99.10;;;;;;6199063;23;20210;-82
2022/04/13 05:16:12;;;;;;;6.72;3.80;;;10.10;98.80;;;;;;6198171;23;20013;-82
2022/04/13 05:18:42;;;;;;;7.43;3.90;;;10.10;98.60;;;;;;6198369;23;20020;-81
2022/04/13 05:21:09;;;;;;;6.80;3.42;;;10.30;97.90;;;;;;6173709;23;20024;-82
2022/04/13 05:23:35;;;;;;;9.05;4.32;;;10.40;97.50;;;;;;6198428;23;20046;-81
2022/04/13 05:26:04;;;;;;;9.40;4.70;;;10.50;97.50;;;;;;6196856;23;20012;-82
2022/04/13 05:28:31;;;;;;;10.18;5.38;;;10.50;96.90;;;;;;6194968;23;20271;-82
2022/04/13 05:30:56;;;;;;;9.57;5.25;;;10.70;96.80;;;;;;6194710;23;20152;-83
2022/04/13 05:33:23;;;;;;;11.90;5.10;;;10.70;96.70;;;;;;6167918;23;20005;-82
2022/04/13 05:35:49;;;;;;;10.02;5.25;;;10.80;96.50;;;;;;6166747;23;20262;-82
2022/04/13 05:38:16;;;;;;;9.63;5.45;;;11.00;96.40;;;;;;6192473;23;20054;-82
2022/04/13 05:48:20;;;;;;;14.95;5.95;;;11.20;95.50;;;;;;6253666;22;20031;-84
2022/04/13 05:51:05;;;;;;;10.35;5.43;;;11.40;95.50;;;;;;6228357;23;20027;-83
2022/04/13 05:53:47;;;;;;;10.32;5.35;;;11.50;95.20;;;;;;6229231;23;20000;-81
2022/04/13 05:56:17;;;;;;;12.52;5.70;;;11.70;95.10;;;;;;6217784;23;20005;-82
2022/04/13 05:58:45;;;;;;;8.98;4.30;;;11.80;94.90;;;;;;6192002;23;20148;-82
2022/04/13 06:01:14;;;;;;;7.53;4.85;;;11.90;94.60;;;;;;6192450;23;20072;-82
2022/04/13 06:03:48;;;;;;;9.43;4.10;;;12.00;94.50;;;;;;6167839;23;20025;-82
2022/04/13 06:06:17;;;;;;;9.00;4.70;;;12.00;94.40;;;;;;6142948;23;20048;-81
2022/04/13 06:08:45;;;;;;;7.85;4.53;;;12.10;94.30;;;;;;6156440;23;20002;-81
2022/04/13 06:11:35;;;;;;;8.88;4.20;;;12.20;94.20;;;;;;6183796;23;20010;-80
2022/04/13 06:14:01;;;;;;;6.00;4.20;;;12.40;94.10;;;;;;6134914;23;20318;-80
2022/04/13 06:16:51;;;;;;;7.43;4.38;;;12.50;93.80;;;;;;6186057;23;20014;-81
2022/04/13 06:19:17;;;;;;;8.45;4.28;;;12.70;93.40;;;;;;6162190;23;20008;-80
2022/04/13 06:21:44;;;;;;;9.27;4.35;;;12.80;93.10;;;;;;6186412;23;20002;-80
2022/04/13 06:24:10;;;;;;;9.30;4.65;;;12.90;92.90;;;;;;6187166;23;19993;-81
2022/04/13 06:26:48;;;;;;;7.38;4.43;;;13.00;92.90;;;;;;6198769;23;20009;-80
2022/04/13 06:33:07;;;;;;;8.73;3.85;;;13.30;92.30;;;;;;6201354;23;20036;-82
2022/04/13 06:35:34;;;;;;;7.20;4.38;;;13.40;91.90;;;;;;6223998;23;20005;-78
2022/04/13 06:37:59;;;;;;;7.45;4.40;;;13.50;91.80;;;;;;6198298;23;20015;-83
2022/04/13 06:40:26;;;;;;;9.60;4.57;;;13.60;91.70;;;;;;6198250;23;20255;-81
2022/04/13 06:43:07;;;;;;;9.00;4.35;;;13.70;91.50;;;;;;6198058;23;20012;-81
2022/04/13 06:46:04;;;;;;;7.78;4.10;;;13.80;91.40;;;;;;6197657;23;20066;-83
2022/04/13 06:48:30;;;;;;;6.40;3.90;;;13.90;91.30;;;;;;6222431;23;20243;-81
2022/04/13 06:54:41;;;;;;;8.23;4.50;;;14.10;90.90;;;;;;6204408;23;20203;-81
2022/04/13 06:57:10;;;;;;;6.10;4.03;;;14.10;91.00;;;;;;6219724;23;20012;-79
2022/04/13 07:00:25;;;;;;;6.68;4.38;;;14.10;91.00;;;;;;6196145;23;20005;-81
2022/04/13 07:02:33;;;;;;;8.57;4.45;;;14.20;90.80;;;;;;6183797;23;20013;-80
2022/04/13 07:05:06;;;;;;;7.57;4.60;;;14.30;90.60;;;;;;6193534;23;20013;-81
2022/04/13 07:07:42;;;;;;;9.20;4.57;;;14.40;90.50;;;;;;6194964;23;20012;-83
2022/04/13 07:10:31;;;;;;;12.48;5.47;;;14.50;90.70;;;;;;6195335;23;20005;-81
2022/04/13 07:13:44;;;;;;;14.60;6.00;;;14.50;90.40;;;;;;6199391;23;20009;-81
2022/04/13 07:17:12;;;;;;;10.05;5.03;;;14.50;90.20;;;;;;6198268;22;20323;-82
2022/04/13 07:19:39;;;;;;;12.38;5.10;;;14.50;90.10;;;;;;6194075;23;20508;-82
2022/04/13 07:22:09;;;;;;;8.23;4.63;;;14.70;90.00;;;;;;6219757;23;20009;-81
2022/04/13 07:24:35;;;;;;;7.68;4.35;;;14.90;89.40;;;;;;6217440;23;20020;-81
2022/04/13 07:27:20;;;;;;;9.85;4.72;;;15.00;89.30;;;;;;6195315;23;20124;-80
2022/04/13 07:29:46;;;;;;;9.63;4.55;;;15.20;88.90;;;;;;6184152;23;20013;-81
2022/04/13 07:32:29;;;;;;;13.02;4.30;;;15.40;88.20;;;;;;6194042;23;20290;-82
2022/04/13 07:35:29;;;;;;;8.63;4.47;;;15.50;87.90;;;;;;6192358;23;20007;-83
2022/04/13 07:37:56;;;;;;;8.52;4.18;;;15.70;86.90;;;;;;6192421;23;20072;-83
2022/04/13 07:40:22;;;;;;;7.57;4.60;;;15.80;86.10;;;;;;6194478;23;20009;-81
2022/04/13 07:42:51;;;;;;;10.65;4.88;;;15.80;85.70;;;;;;6194118;23;20029;-81
2022/04/13 07:45:21;;;;;;;10.63;5.05;;;16.00;85.80;;;;;;6193633;23;20036;-82
2022/04/13 07:51:40;;;;;;;10.95;4.63;;;16.50;84.00;;;;;;6198592;23;20104;-82
2022/04/13 07:54:07;;;;;;;8.60;4.63;;;16.60;83.60;;;;;;6221199;23;20009;-81
2022/04/13 07:56:33;;;;;;;9.02;4.88;;;16.80;83.10;;;;;;6222033;23;20294;-81
2022/04/13 07:58:59;;;;;;;11.02;5.57;;;16.80;82.40;;;;;;6196822;23;20027;-81
2022/04/13 08:01:43;;;;;;;10.50;5.05;;;16.90;82.50;;;;;;6195747;23;20277;-82
2022/04/13 08:04:09;;;;;;;9.48;4.90;;;17.10;82.10;;;;;;6139586;23;20057;-82
2022/04/13 08:06:35;;;;;;;10.93;4.97;;;17.30;81.50;;;;;;6188659;23;20001;-83
2022/04/13 08:09:18;;;;;;;11.30;5.22;;;17.40;80.80;;;;;;6139096;23;19993;-84
2022/04/13 08:25:45;;;;;;;14.80;5.05;;;18.50;78.30;;;;;;6228571;23;20214;-83
2022/04/13 08:28:26;;;;;;;10.93;4.60;;;18.90;77.60;;;;;;6203813;23;20344;-82
2022/04/13 09:43:37;;;;;;;9.07;2.80;;;22.10;61.90;;;;;;6191128;22;20023;-82
2022/04/13 09:46:39;;;;;;;6.32;2.20;;;22.20;62.80;;;;;;6238693;23;20030;-83
2022/04/13 09:56:36;;;;;;;5.60;1.60;;;22.50;58.90;;;;;;6195948;23;20021;-84
2022/04/13 09:59:29;;;;;;;5.30;1.50;;;22.40;59.30;;;;;;6075894;23;20033;-83
2022/04/13 10:02:27;;;;;;;;;;;;;;;;;;;;;
2022/04/13 10:06:10;;;;;;;;;;;;;;;;;;;;;
2022/04/13 11:21:03;;;;;;;;;;;;;;;;;;;;;
2022/04/13 11:39:42;;;;;;;;;;;30.40;51.20;;;;;;6075745;23;20043;-83
2022/04/13 11:42:20;;;;;;;4.00;1.50;;;31.40;50.00;;;;;;6170181;23;19943;-83
2022/04/13 11:44:51;;;;;;;5.65;1.60;;;31.60;48.80;;;;;;6169479;23;20184;-83
2022/04/13 11:47:19;;;;;;;6.25;1.70;;;32.20;48.60;;;;;;6168644;23;20025;-84
2022/04/13 11:50:14;;;;;;;5.78;1.63;;;32.90;47.80;;;;;;6196613;23;20012;-84
2022/04/13 12:07:20;;;;;;;5.72;1.45;;;33.20;45.90;;;;;;6195298;23;20325;-84
2022/04/13 12:29:24;;;;;;;4.63;1.33;;;33.90;45.90;;;;;;6088633;23;20025;-83
2022/04/13 12:31:53;;;;;;;3.88;1.40;;;35.70;44.70;;;;;;6087788;23;20054;-79
2022/04/13 12:34:20;;;;;;;6.18;1.55;;;36.90;44.50;;;;;;6088919;23;20049;-81
2022/04/13 12:37:00;;;;;;;7.03;1.83;;;37.40;47.00;;;;;;6088405;23;20013;-80
2022/04/13 12:40:17;;;;;;;4.78;1.95;;;37.60;43.50;;;;;;6113524;23;20033;-81
2022/04/13 12:42:46;;;;;;;5.50;1.45;;;37.80;43.40;;;;;;6002891;23;20007;-80
2022/04/13 12:45:17;;;;;;;4.93;1.50;;;38.00;44.50;;;;;;6022383;23;20004;-80
2022/04/13 12:48:15;;;;;;;3.80;1.75;;;39.00;42.50;;;;;;6011027;23;20039;-80
2022/04/13 12:50:54;;;;;;;8.57;2.08;;;39.60;42.50;;;;;;5977678;23;20018;-80
2022/04/13 12:53:20;;;;;;;6.93;1.40;;;39.80;42.60;;;;;;5981665;23;20145;-81
2022/04/13 12:55:54;;;;;;;5.05;1.48;;;40.10;41.30;;;;;;5984716;23;20016;-80
2022/04/13 12:58:19;;;;;;;5.15;1.45;;;40.10;42.80;;;;;;6008722;23;20045;-81
2022/04/13 13:00:53;;;;;;;6.53;1.45;;;40.60;42.50;;;;;;6005520;23;20016;-80
2022/04/13 13:03:22;;;;;;;4.20;1.38;;;41.40;41.00;;;;;;6007623;23;20157;-81
2022/04/13 13:05:48;;;;;;;4.28;1.25;;;42.20;40.70;;;;;;6009024;23;20000;-81
2022/04/13 13:08:14;;;;;;;8.43;1.50;;;41.30;40.10;;;;;;6019428;23;20217;-81
2022/04/13 13:10:47;;;;;;;6.28;1.40;;;41.70;40.00;;;;;;6018724;23;20098;-81
2022/04/13 13:13:18;;;;;;;3.10;1.40;;;41.10;39.90;;;;;;6019090;23;20067;-80
2022/04/13 13:15:45;;;;;;;3.25;1.50;;;41.40;40.60;;;;;;6034101;23;20026;-81
2022/04/13 13:18:11;;;;;;;6.03;1.30;;;41.30;39.70;;;;;;6081018;23;20347;-79
2022/04/13 13:20:56;;;;;;;3.05;1.10;;;42.00;39.70;;;;;;6104147;23;20401;-80
2022/04/13 13:23:24;;;;;;;2.97;1.17;;;41.80;39.30;;;;;;6103622;23;20194;-80
2022/04/13 13:25:51;;;;;;;5.88;1.67;;;41.60;39.50;;;;;;6108591;23;20002;-80
2022/04/13 13:28:17;;;;;;;4.00;1.42;;;42.10;41.20;;;;;;6108311;23;20014;-79
2022/04/13 13:30:45;;;;;;;5.07;1.30;;;42.50;39.70;;;;;;6129252;23;20021;-82
2022/04/13 13:33:11;;;;;;;6.20;1.30;;;42.50;39.80;;;;;;6109142;23;20002;-81
2022/04/13 13:35:39;;;;;;;4.63;1.42;;;42.90;39.50;;;;;;6131352;23;20211;-80
2022/04/13 13:38:11;;;;;;;4.90;1.42;;;43.90;38.90;;;;;;6132071;23;20195;-81
2022/04/13 13:40:37;;;;;;;6.60;1.95;;;43.80;39.00;;;;;;6134164;23;20010;-81
2022/04/13 13:43:06;;;;;;;10.98;3.10;;;43.60;38.60;;;;;;6135067;23;20062;-81
2022/04/13 13:45:34;;;;;;;9.50;2.30;;;42.80;38.80;;;;;;6083345;23;20018;-80
2022/04/13 13:48:01;;;;;;;9.70;1.98;;;42.40;39.70;;;;;;6131883;23;20025;-81
2022/04/13 13:50:36;;;;;;;4.43;1.52;;;42.60;39.20;;;;;;6133696;23;20014;-80
2022/04/13 13:53:03;;;;;;;4.45;1.30;;;43.40;39.90;;;;;;6132907;23;20009;-81
2022/04/13 13:55:30;;;;;;;;;;;43.00;39.00;;;;;;6132703;23;20024;-81
2022/04/13 13:57:57;;;;;;;5.35;1.40;;;43.20;39.50;;;;;;6134808;23;20111;-81
2022/04/13 14:00:27;;;;;;;2.97;1.20;;;43.20;38.80;;;;;;6123049;23;20248;-81
2022/04/13 14:02:53;;;;;;;4.40;1.60;;;43.20;38.40;;;;;;6125561;23;20014;-80
2022/04/13 14:05:24;;;;;;;6.00;1.90;;;43.60;38.10;;;;;;6102017;23;20065;-80
2022/04/13 14:07:51;;;;;;;6.00;1.60;;;43.40;38.90;;;;;;6127669;23;20028;-81
2022/04/13 14:10:18;;;;;;;9.60;1.48;;;43.70;38.20;;;;;;6106160;23;20041;-80
2022/04/13 14:12:43;;;;;;;6.50;1.75;;;43.50;38.50;;;;;;6132085;23;20010;-79
2022/04/13 14:15:12;;;;;;;5.05;1.58;;;43.60;38.40;;;;;;6131706;23;20038;-82
2022/04/13 14:17:43;;;;;;;4.30;1.35;;;43.70;38.30;;;;;;6107341;23;20045;-81
2022/04/13 14:20:10;;;;;;;5.32;1.70;;;43.30;38.90;;;;;;6134914;23;20012;-80
2022/04/13 14:22:37;;;;;;;6.45;1.48;;;43.50;38.80;;;;;;6133191;23;20017;-80
2022/04/13 14:25:04;;;;;;;5.78;1.95;;;43.70;40.30;;;;;;6107855;23;20010;-80
2022/04/13 14:27:31;;;;;;;6.50;1.55;;;43.80;38.40;;;;;;6106926;23;20036;-81
2022/04/13 14:29:58;;;;;;;6.63;1.50;;;44.10;39.00;;;;;;6083890;23;20021;-81
2022/04/13 14:32:25;;;;;;;5.80;1.55;;;43.70;39.30;;;;;;6106080;23;20025;-82
2022/04/13 14:34:56;;;;;;;4.38;1.23;;;43.80;37.90;;;;;;6128148;23;20014;-80
2022/04/13 14:37:22;;;;;;;5.78;1.50;;;43.00;38.30;;;;;;6132086;23;20389;-80
2022/04/13 14:39:51;;;;;;;5.95;1.88;;;43.20;38.50;;;;;;6082452;23;20025;-79
2022/04/13 14:42:17;;;;;;;6.78;1.70;;;43.30;38.00;;;;;;6131251;23;20097;-81
2022/04/13 14:44:43;;;;;;;6.50;1.45;;;43.00;38.40;;;;;;6103638;23;20313;-80
2022/04/13 14:47:10;;;;;;;6.28;1.60;;;42.60;37.90;;;;;;6105251;23;20082;-83
2022/04/13 14:49:37;;;;;;;5.65;1.30;;;43.00;38.00;;;;;;6110277;23;20184;-79
2022/04/13 14:52:04;;;;;;;3.03;1.17;;;43.60;37.60;;;;;;6112402;23;20009;-80
2022/04/13 14:54:31;;;;;;;6.53;1.38;;;43.80;38.00;;;;;;6135984;23;20035;-82
2022/04/13 14:56:57;;;;;;;8.25;1.42;;;44.50;37.20;;;;;;6109292;23;20010;-81
2022/04/13 14:59:26;;;;;;;5.78;1.75;;;44.20;37.00;;;;;;6132781;23;20002;-81
2022/04/13 15:01:52;;;;;;;3.05;1.08;;;43.50;37.30;;;;;;6108610;23;20022;-81
2022/04/13 15:04:18;;;;;;;4.13;1.02;;;43.00;38.50;;;;;;6107851;23;20259;-80
2022/04/13 15:06:44;;;;;;;5.15;1.25;;;43.10;37.90;;;;;;6133551;23;20010;-81
2022/04/13 15:09:10;;;;;;;6.28;1.40;;;42.80;37.70;;;;;;6134574;23;20026;-81
2022/04/13 15:11:36;;;;;;;7.78;1.80;;;42.60;38.20;;;;;;6133920;23;20275;-81
2022/04/13 15:14:07;;;;;;;6.10;1.40;;;42.50;37.50;;;;;;6109059;23;20424;-82
2022/04/13 15:16:35;;;;;;;5.97;1.30;;;42.30;37.50;;;;;;6114239;23;20354;-80
2022/04/13 15:19:05;;;;;;;5.38;1.60;;;42.00;37.40;;;;;;6138628;23;20006;-81
2022/04/13 15:21:35;;;;;;;7.68;1.60;;;42.10;37.70;;;;;;6116320;23;20053;-77
2022/04/13 15:24:01;;;;;;;6.78;1.58;;;41.60;37.50;;;;;;6142281;23;20006;-78
2022/04/13 15:26:28;;;;;;;;;;;41.60;37.70;;;;;;6138630;23;20022;-78
2022/04/13 15:28:54;;;;;;;4.90;1.63;;;41.60;37.70;;;;;;6134145;23;20270;-78
2022/04/13 15:31:20;;;;;;;6.65;1.13;;;42.10;38.40;;;;;;6104907;23;20014;-81
2022/04/13 15:33:46;;;;;;;6.10;1.25;;;42.20;37.40;;;;;;6138712;23;20008;-80
2022/04/13 15:36:13;;;;;;;3.53;1.17;;;42.00;37.20;;;;;;6131135;23;20240;-79
2022/04/13 15:38:39;;;;;;;4.65;1.17;;;41.60;37.80;;;;;;6132129;23;20006;-78
2022/04/13 15:41:30;;;;;;;3.95;1.13;;;41.30;37.80;;;;;;6142233;23;19998;-84
2022/04/13 15:44:22;;;;;;;3.85;1.02;;;40.90;38.20;;;;;;6149964;23;20020;-84
2022/04/13 15:46:59;;;;;;;4.68;1.00;;;41.10;39.10;;;;;;6114319;23;20033;-81
2022/04/13 15:49:32;;;;;;;6.10;1.10;;;41.20;40.60;;;;;;6149620;23;20010;-81
2022/04/13 15:52:29;;;;;;;7.57;1.38;;;41.70;38.00;;;;;;6099000;23;20006;-83
2022/04/13 15:55:23;;;;;;;3.67;1.13;;;42.50;39.40;;;;;;6126363;23;20037;-84
2022/04/13 15:58:01;;;;;;;5.55;1.42;;;42.30;37.40;;;;;;6121207;23;20025;-84
2022/04/13 16:01:05;;;;;;;5.60;1.23;;;41.80;37.20;;;;;;6122783;23;20006;-84
2022/04/13 16:06:41;;;;;;;5.90;1.58;;;40.00;38.30;;;;;;6133812;23;20068;-83
2022/04/13 16:09:25;;;;;;;6.82;1.70;;;39.70;39.40;;;;;;6117512;23;20029;-86
2022/04/13 16:12:13;;;;;;;;;;;;;;;;;;;;;
2022/04/13 16:14:54;;;;;;;4.75;1.42;;;39.60;39.80;;;;;;6116953;23;20220;-83
2022/04/13 16:17:31;;;;;;;4.60;1.40;;;40.00;38.60;;;;;;6080540;23;20080;-83
2022/04/13 16:20:06;;;;;;;8.27;1.88;;;40.50;38.70;;;;;;6087468;23;20101;-85
2022/04/13 16:23:42;;;;;;;6.45;1.55;;;40.50;38.60;;;;;;6112085;23;20013;-85
2022/04/13 16:31:03;;;;;;;6.30;1.55;;;39.00;38.70;;;;;;6070211;23;20038;-84
2022/04/13 16:33:42;;;;;;;6.28;1.70;;;38.10;39.40;;;;;;6089209;23;20017;-84
2022/04/13 16:36:11;;;;;;;6.40;1.60;;;37.50;40.60;;;;;;6089373;23;20127;-81
2022/04/13 16:38:40;;;;;;;7.50;1.70;;;36.40;41.30;;;;;;6110687;23;20014;-85
2022/04/13 16:41:10;;;;;;;6.50;1.77;;;35.30;42.20;;;;;;6087641;23;20009;-83
2022/04/13 16:43:38;;;;;;;8.00;1.27;;;34.10;42.40;;;;;;6084968;23;20010;-83
2022/04/13 16:46:07;;;;;;;9.18;1.58;;;32.40;43.20;;;;;;6087630;23;20061;-83
2022/04/13 16:48:32;;;;;;;;;;;31.80;45.10;;;;;;6088690;23;20038;-83
2022/04/13 16:50:59;;;;;;;6.43;1.25;;;31.20;44.90;;;;;;6104840;23;19901;-84
2022/04/13 16:53:25;;;;;;;6.53;1.67;;;30.80;46.70;;;;;;6120269;23;20291;-84
2022/04/13 16:55:52;;;;;;;7.57;1.60;;;30.40;47.10;;;;;;6094689;23;20006;-84
2022/04/13 16:58:20;;;;;;;5.95;1.40;;;30.10;50.80;;;;;;6119112;23;20061;-84
2022/04/13 17:00:46;;;;;;;8.55;1.73;;;29.70;46.40;;;;;;6093368;23;20010;-86
2022/04/13 17:03:12;;;;;;;9.00;1.95;;;29.10;46.30;;;;;;6117494;23;20005;-83
2022/04/13 17:05:42;;;;;;;4.78;1.30;;;28.60;48.30;;;;;;6141055;23;20292;-84
2022/04/13 17:08:09;;;;;;;6.15;1.55;;;28.20;49.00;;;;;;6141366;23;20017;-85
2022/04/13 17:10:36;;;;;;;5.68;1.50;;;27.90;48.60;;;;;;6140612;23;20041;-84
2022/04/13 17:13:03;;;;;;;8.03;1.90;;;27.50;48.50;;;;;;6103632;23;20061;-86
2022/04/13 17:15:38;;;;;;;5.90;1.40;;;27.20;48.80;;;;;;6102592;23;20041;-85
2022/04/13 17:18:04;;;;;;;4.85;1.48;;;27.00;52.60;;;;;;6103662;23;20002;-85
2022/04/13 17:20:30;;;;;;;4.95;1.73;;;26.70;52.60;;;;;;6099875;23;20094;-88
2022/04/13 17:22:57;;;;;;;8.48;1.85;;;26.80;52.10;;;;;;6101383;23;20155;-83
2022/04/13 17:25:23;;;;;;;5.47;1.48;;;26.40;50.40;;;;;;6135248;23;20009;-83
2022/04/13 17:27:49;;;;;;;5.32;1.67;;;26.20;52.50;;;;;;6136065;23;20025;-86
2022/04/13 17:30:14;;;;;;;3.97;1.40;;;26.10;52.70;;;;;;6134477;23;20224;-87
2022/04/13 17:32:41;;;;;;;5.90;1.70;;;25.80;51.90;;;;;;6109164;23;20055;-85
2022/04/13 17:35:14;;;;;;;7.60;2.13;;;25.70;53.40;;;;;;6085601;23;20003;-82
2022/04/13 17:37:41;;;;;;;5.68;1.90;;;25.50;54.90;;;;;;6110728;23;20328;-86
2022/04/13 17:40:16;;;;;;;7.15;1.92;;;25.10;54.40;;;;;;6081538;23;20017;-86
2022/04/13 17:42:43;;;;;;;8.23;2.03;;;24.90;54.30;;;;;;6082171;23;19999;-85
2022/04/13 17:45:10;;;;;;;;;;;24.60;55.10;;;;;;6078496;23;20038;-84
2022/04/13 17:47:38;;;;;;;7.38;2.10;;;24.40;56.30;;;;;;6051218;23;19926;-85
2022/04/13 17:50:22;;;;;;;7.63;1.67;;;24.30;54.70;;;;;;6054660;23;20059;-87
2022/04/13 17:52:51;;;;;;;9.13;1.70;;;24.00;55.00;;;;;;5988021;23;20015;-83
2022/04/13 17:55:17;;;;;;;4.90;1.90;;;23.90;56.60;;;;;;6031233;23;20011;-84
2022/04/13 17:57:56;;;;;;;4.82;1.95;;;23.70;56.10;;;;;;6055282;23;20014;-84
2022/04/13 18:00:22;;;;;;;7.07;2.10;;;23.50;57.10;;;;;;6055397;23;20451;-85
2022/04/13 18:02:49;;;;;;;10.50;2.40;;;23.40;57.70;;;;;;6031922;23;20014;-84
2022/04/13 18:05:16;;;;;;;6.13;2.13;;;23.30;57.10;;;;;;6031335;23;20038;-86
2022/04/13 18:07:42;;;;;;;5.93;1.85;;;23.20;61.00;;;;;;6054601;23;20007;-86
2022/04/13 18:10:08;;;;;;;8.13;1.92;;;23.10;60.00;;;;;;6054568;23;20007;-88
2022/04/13 18:12:34;;;;;;;5.25;1.88;;;22.90;58.20;;;;;;6059109;23;20003;-79
2022/04/13 18:15:04;;;;;;;6.93;2.00;;;22.80;59.70;;;;;;6057538;23;20077;-86
2022/04/13 18:17:30;;;;;;;4.32;2.08;;;22.70;62.90;;;;;;6040694;23;20015;-85
2022/04/13 18:19:57;;;;;;;6.75;2.22;;;22.60;62.70;;;;;;6096798;23;20023;-86
2022/04/13 18:22:23;;;;;;;6.43;2.10;;;22.50;61.70;;;;;;6100197;23;20016;-85
2022/04/13 18:24:51;;;;;;;7.97;2.30;;;22.30;61.40;;;;;;6100953;23;20010;-87
2022/04/13 18:27:17;;;;;;;5.88;2.50;;;22.20;60.50;;;;;;6119602;23;20014;-85
2022/04/13 18:29:45;;;;;;;6.95;2.50;;;22.10;62.50;;;;;;6095492;23;20007;-84
2022/04/13 18:32:11;;;;;;;7.90;2.47;;;22.00;62.80;;;;;;6119667;23;20021;-86
2022/04/13 18:34:37;;;;;;;7.47;2.80;;;21.90;63.40;;;;;;6121440;23;20010;-84
2022/04/13 18:37:04;;;;;;;7.63;3.20;;;21.90;63.70;;;;;;6120188;23;20006;-84
2022/04/13 18:39:30;;;;;;;6.65;2.60;;;21.80;63.20;;;;;;6093471;23;20006;-80
2022/04/13 18:41:58;;;;;;;8.35;3.08;;;21.70;65.10;;;;;;6117881;23;20005;-83
2022/04/13 18:44:24;;;;;;;8.93;3.65;;;21.60;62.90;;;;;;6059645;23;20011;-84
2022/04/13 18:46:51;;;;;;;10.50;3.35;;;21.30;66.40;;;;;;6058364;23;20104;-82
2022/04/13 18:49:17;;;;;;;11.35;3.25;;;21.20;66.50;;;;;;6058087;23;20023;-81
2022/04/13 18:51:44;;;;;;;7.40;3.67;;;21.10;67.30;;;;;;6059043;23;20011;-82
2022/04/13 18:54:10;;;;;;;11.27;4.10;;;21.00;66.90;;;;;;6059532;23;20000;-82
2022/04/13 18:56:36;;;;;;;8.65;3.67;;;20.90;67.20;;;;;;6059564;23;20055;-84
2022/04/13 18:59:01;;;;;;;8.27;3.88;;;20.70;69.00;;;;;;6060669;23;20096;-83
2022/04/13 19:01:29;;;;;;;9.73;4.22;;;20.70;69.00;;;;;;6034309;23;20055;-82
2022/04/13 19:03:55;;;;;;;10.02;4.28;;;20.60;66.60;;;;;;6035004;23;20015;-82
2022/04/13 19:06:21;;;;;;;9.60;3.78;;;20.40;67.60;;;;;;6059587;23;20000;-84
2022/04/13 19:08:50;;;;;;;8.60;4.07;;;20.20;68.60;;;;;;6059809;23;20027;-83
2022/04/13 19:11:19;;;;;;;9.30;4.10;;;20.20;70.30;;;;;;6058845;23;20233;-83
2022/04/13 19:13:46;;;;;;;9.45;4.47;;;20.10;70.50;;;;;;6055348;23;20082;-85
2022/04/13 19:16:12;;;;;;;9.02;4.05;;;20.00;70.30;;;;;;6099943;23;20039;-84
2022/04/13 19:18:38;;;;;;;8.35;3.90;;;19.90;70.50;;;;;;6082757;23;20002;-84
2022/04/13 19:21:04;;;;;;;9.60;3.92;;;19.90;70.50;;;;;;6107727;23;20181;-85
2022/04/13 19:23:30;;;;;;;10.13;4.70;;;19.80;71.90;;;;;;6082446;23;20327;-85
2022/04/13 19:26:00;;;;;;;10.10;4.45;;;19.70;71.00;;;;;;6108066;23;20089;-83
2022/04/13 19:28:29;;;;;;;9.65;4.72;;;19.60;72.00;;;;;;6088357;23;20213;-83
2022/04/13 19:30:54;;;;;;;14.77;5.40;;;19.50;72.90;;;;;;6136274;23;20045;-83
2022/04/13 19:33:20;;;;;;;10.75;4.97;;;19.50;73.10;;;;;;6081067;23;20006;-83
2022/04/13 19:35:46;;;;;;;9.85;5.60;;;19.40;73.60;;;;;;6107727;23;20010;-84
2022/04/13 19:38:12;;;;;;;13.00;5.18;;;19.30;71.90;;;;;;6108487;23;20006;-83
2022/04/13 19:40:38;;;;;;;11.32;4.95;;;19.20;73.50;;;;;;6107500;23;19994;-84
2022/04/13 19:43:04;;;;;;;10.35;5.10;;;19.10;74.00;;;;;;6107439;23;20061;-83
2022/04/13 19:45:30;;;;;;;10.77;5.20;;;19.00;75.10;;;;;;6082989;23;20014;-85
2022/04/13 19:47:56;;;;;;;10.32;4.85;;;19.00;73.90;;;;;;6109345;23;20010;-85
2022/04/13 19:50:22;;;;;;;9.95;4.15;;;18.90;73.00;;;;;;6106473;23;20208;-84
2022/04/13 19:52:48;;;;;;;10.98;4.60;;;18.80;73.80;;;;;;6108176;23;20014;-84
2022/04/13 19:55:14;;;;;;;9.07;4.60;;;18.80;73.10;;;;;;6109230;23;20014;-84
2022/04/13 19:57:39;;;;;;;10.02;5.00;;;18.60;74.60;;;;;;6082270;23;20098;-84
2022/04/13 20:00:07;;;;;;;8.70;4.85;;;18.50;74.70;;;;;;6082551;23;20224;-85
2022/04/13 20:02:35;;;;;;;8.82;4.60;;;18.50;76.20;;;;;;6107560;23;20002;-85
2022/04/13 20:05:03;;;;;;;11.02;4.97;;;18.40;76.30;;;;;;6113105;23;20017;-84
2022/04/13 20:07:28;;;;;;;10.57;5.55;;;18.40;75.80;;;;;;6138609;23;19993;-86
2022/04/13 20:09:54;;;;;;;11.65;5.93;;;18.20;76.20;;;;;;6093560;23;20341;-84
2022/04/13 20:12:24;;;;;;;16.67;6.65;;;18.10;76.50;;;;;;6101388;23;20030;-83
2022/04/13 20:14:50;;;;;;;10.48;5.70;;;18.00;76.70;;;;;;6149368;23;20061;-84
2022/04/13 20:17:16;;;;;;;10.27;5.90;;;17.80;77.40;;;;;;6149333;23;20013;-84
2022/04/13 20:19:41;;;;;;;12.40;6.20;;;17.80;78.80;;;;;;6094712;23;20046;-84
2022/04/13 20:22:07;;;;;;;10.80;5.65;;;17.70;78.00;;;;;;6107025;23;20246;-84
2022/04/13 20:24:36;;;;;;;10.68;5.72;;;17.70;79.00;;;;;;6108984;23;20001;-85
2022/04/13 20:27:03;;;;;;;12.15;6.03;;;17.60;79.20;;;;;;6107380;23;20011;-85
2022/04/13 20:29:31;;;;;;;8.57;5.15;;;17.60;79.20;;;;;;6082850;23;20010;-84
2022/04/13 20:32:01;;;;;;;9.88;4.88;;;17.60;79.90;;;;;;6106139;23;20010;-85
2022/04/13 20:34:27;;;;;;;11.20;6.00;;;17.50;80.00;;;;;;6106748;23;20006;-84
2022/04/13 20:36:53;;;;;;;14.30;6.40;;;17.50;80.40;;;;;;6111065;23;20062;-83
2022/04/13 20:39:21;;;;;;;12.05;6.53;;;17.40;80.00;;;;;;6107044;23;20018;-85
2022/04/13 20:41:48;;;;;;;11.50;5.80;;;17.30;80.10;;;;;;6083710;23;20010;-86
2022/04/13 20:44:13;;;;;;;12.20;5.03;;;17.20;80.60;;;;;;6107688;23;20033;-85
2022/04/13 20:46:39;;;;;;;12.93;6.10;;;17.10;81.30;;;;;;6107142;23;20018;-84
2022/04/13 20:49:05;;;;;;;10.63;5.72;;;17.00;80.90;;;;;;6074250;23;20042;-85
2022/04/13 20:51:31;;;;;;;11.10;6.07;;;16.80;81.30;;;;;;6074737;23;20260;-83
2022/04/13 20:53:57;;;;;;;11.45;5.82;;;16.60;81.60;;;;;;6102613;23;20327;-84
2022/04/13 20:56:23;;;;;;;12.30;5.80;;;16.60;82.00;;;;;;6080364;23;20006;-84
2022/04/13 20:58:52;;;;;;;15.30;6.32;;;16.40;82.60;;;;;;6079795;23;20006;-84
2022/04/13 21:01:17;;;;;;;14.05;6.55;;;16.40;82.80;;;;;;6054496;23;20015;-84
2022/04/13 21:03:46;;;;;;;11.38;6.32;;;16.20;83.10;;;;;;6078827;23;20223;-84
2022/04/13 21:06:24;;;;;;;11.00;6.68;;;16.20;83.70;;;;;;6103420;23;20027;-85
2022/04/13 21:08:51;;;;;;;12.73;5.90;;;16.00;84.00;;;;;;6103464;23;20087;-82
2022/04/13 21:11:16;;;;;;;12.05;6.40;;;16.00;84.90;;;;;;6108245;23;20010;-84
2022/04/13 21:13:42;;;;;;;11.77;6.13;;;16.00;84.50;;;;;;6084798;23;20240;-84
2022/04/13 21:16:08;;;;;;;11.15;6.07;;;15.90;85.30;;;;;;6057969;23;20038;-83
2022/04/13 21:18:34;;;;;;;13.40;5.80;;;15.90;85.60;;;;;;6082253;23;20010;-83
2022/04/13 21:21:00;;;;;;;8.68;5.25;;;15.80;86.00;;;;;;6113231;23;20050;-83
2022/04/13 21:23:26;;;;;;;13.68;6.35;;;15.80;86.20;;;;;;6118622;23;20022;-86
2022/04/13 21:25:53;;;;;;;10.60;5.72;;;15.80;86.50;;;;;;6118814;23;20002;-85
2022/04/13 21:28:20;;;;;;;11.55;5.47;;;15.80;86.90;;;;;;6123611;23;20010;-84
2022/04/13 21:30:46;;;;;;;12.82;6.05;;;15.80;86.60;;;;;;6098924;23;20002;-83
2022/04/13 21:33:12;;;;;;;8.55;5.57;;;15.80;85.90;;;;;;6095691;23;20026;-84
2022/04/13 21:35:37;;;;;;;10.35;5.28;;;15.70;85.60;;;;;;6096521;23;20017;-83
2022/04/13 21:38:03;;;;;;;10.30;5.43;;;15.60;86.60;;;;;;6037636;23;19994;-87
2022/04/13 21:40:32;;;;;;;12.32;6.40;;;15.60;86.90;;;;;;6061099;23;20030;-81
2022/04/13 21:42:58;;;;;;;;;;;15.60;87.20;;;;;;6059627;23;20010;-81
2022/04/13 21:45:24;;;;;;;11.02;5.70;;;15.60;86.90;;;;;;6058857;23;19906;-82
2022/04/13 21:48:04;;;;;;;13.90;6.15;;;15.60;87.20;;;;;;6012645;23;20023;-83
2022/04/13 21:50:30;;;;;;;10.45;5.72;;;15.60;86.60;;;;;;6002743;24;20027;-82
2022/04/13 21:52:57;;;;;;;13.55;6.35;;;15.60;87.80;;;;;;6003786;23;20000;-83
2022/04/13 21:55:25;;;;;;;10.02;5.45;;;15.50;87.50;;;;;;6001831;24;20016;-82
2022/04/13 21:57:58;;;;;;;8.10;5.53;;;15.50;88.00;;;;;;6004057;24;20016;-82
2022/04/13 22:00:46;;;;;;;12.73;6.18;;;15.40;88.10;;;;;;6002042;23;20015;-82
2022/04/13 22:03:12;;;;;;;9.57;5.38;;;15.40;88.20;;;;;;6002417;23;20056;-80
2022/04/13 22:05:40;;;;;;;9.70;4.93;;;15.30;88.10;;;;;;6002956;23;19999;-82
2022/04/13 22:08:07;;;;;;;9.55;5.47;;;15.20;88.20;;;;;;6003707;23;20134;-84
2022/04/13 22:10:35;;;;;;;11.32;5.97;;;15.20;88.80;;;;;;6003510;24;19984;-82
2022/04/13 22:13:02;;;;;;;14.23;6.50;;;15.20;89.00;;;;;;5979878;24;20008;-81
2022/04/13 22:15:31;;;;;;;12.40;6.30;;;15.10;88.70;;;;;;6035137;23;20004;-84